createdAt,value
2023-02-27T00:00:54.529Z,61.00
2023-02-27T00:03:21.483Z,61.00
2023-02-27T00:05:48.742Z,61.10
2023-02-27T00:08:15.682Z,61.10
2023-02-27T00:10:42.593Z,61.10
2023-02-27T00:13:10.429Z,61.10
2023-02-27T00:15:38.559Z,61.10
2023-02-27T00:18:05.559Z,61.20
2023-02-27T00:20:37.912Z,61.20
2023-02-27T00:23:05.922Z,61.30
2023-02-27T00:25:33.962Z,61.30
2023-02-27T00:28:01.130Z,61.30
2023-02-27T00:30:28.110Z,61.40
2023-02-27T00:32:55.194Z,61.30
2023-02-27T00:35:22.556Z,61.40
2023-02-27T00:37:49.562Z,61.50
2023-02-27T00:40:16.455Z,61.40
2023-02-27T00:42:43.548Z,61.50
2023-02-27T00:45:11.162Z,61.50
2023-02-27T00:47:38.059Z,61.50
2023-02-27T00:50:05.205Z,61.60
2023-02-27T00:52:33.783Z,61.70
2023-02-27T00:55:00.990Z,61.70
2023-02-27T00:57:28.073Z,61.70
2023-02-27T00:59:54.974Z,61.70
2023-02-27T01:02:22.231Z,61.70
2023-02-27T01:04:51.345Z,61.60
2023-02-27T01:07:18.249Z,61.50
2023-02-27T01:09:45.181Z,61.50
2023-02-27T01:12:12.115Z,61.50
2023-02-27T01:14:39.451Z,61.50
2023-02-27T01:17:06.569Z,61.40
2023-02-27T01:19:33.454Z,61.30
2023-02-27T01:22:00.352Z,61.30
2023-02-27T01:24:27.533Z,61.20
2023-02-27T01:26:54.404Z,61.10
2023-02-27T01:29:21.400Z,61.00
2023-02-27T01:31:49.467Z,61.10
2023-02-27T01:34:17.344Z,61.10
2023-02-27T01:36:44.234Z,61.00
2023-02-27T01:39:11.132Z,60.90
2023-02-27T01:41:38.082Z,60.80
2023-02-27T01:44:06.568Z,60.70
2023-02-27T01:46:34.162Z,60.70
2023-02-27T01:49:10.706Z,60.70
2023-02-27T01:51:40.403Z,60.60
2023-02-27T01:54:08.391Z,60.60
2023-02-27T01:56:35.388Z,60.60
2023-02-27T01:59:06.985Z,60.40
2023-02-27T02:01:34.503Z,60.40
2023-02-27T02:04:06.567Z,60.30
2023-02-27T02:06:35.922Z,60.30
2023-02-27T02:09:04.047Z,60.20
2023-02-27T02:11:30.903Z,60.20
2023-02-27T02:13:58.781Z,60.10
2023-02-27T02:16:35.021Z,60.00
2023-02-27T02:19:01.872Z,60.00
2023-02-27T02:21:51.811Z,59.90
2023-02-27T02:24:29.569Z,59.80
2023-02-27T02:26:56.420Z,59.70
2023-02-27T02:29:23.218Z,59.70
2023-02-27T02:31:50.236Z,59.70
2023-02-27T02:34:35.638Z,59.50
2023-02-27T02:37:05.592Z,59.50
2023-02-27T02:39:35.406Z,59.50
2023-02-27T02:42:11.530Z,59.50
2023-02-27T02:44:44.490Z,59.40
2023-02-27T02:47:17.289Z,59.30
2023-02-27T02:49:46.940Z,59.30
2023-02-27T02:52:22.925Z,59.20
2023-02-27T02:55:19.115Z,59.20
2023-02-27T02:57:46.011Z,59.20
2023-02-27T03:00:20.712Z,59.10
2023-02-27T03:02:51.283Z,59.10
2023-02-27T03:05:26.058Z,59.00
2023-02-27T03:08:03.071Z,59.00
2023-02-27T03:10:32.636Z,58.90
2023-02-27T03:13:02.233Z,58.90
2023-02-27T03:15:36.948Z,58.90
2023-02-27T03:18:03.855Z,59.00
2023-02-27T03:20:42.503Z,59.10
2023-02-27T03:23:12.117Z,59.10
2023-02-27T03:25:39.803Z,59.30
2023-02-27T03:28:09.678Z,59.40
2023-02-27T03:30:49.815Z,59.50
2023-02-27T03:33:26.154Z,59.40
2023-02-27T03:36:11.535Z,59.70
2023-02-27T03:38:54.826Z,59.70
2023-02-27T03:41:27.845Z,59.80
2023-02-27T03:44:13.799Z,59.80
2023-02-27T03:46:41.154Z,60.00
2023-02-27T03:49:08.584Z,60.10
2023-02-27T03:51:36.133Z,60.20
2023-02-27T03:54:27.681Z,60.30
2023-02-27T03:56:58.069Z,60.40
2023-02-27T03:59:25.445Z,60.40
2023-02-27T04:01:53.421Z,60.50
2023-02-27T04:04:21.593Z,60.80
2023-02-27T04:07:13.195Z,60.80
2023-02-27T04:09:48.685Z,60.70
2023-02-27T04:12:38.895Z,60.70
2023-02-27T04:15:09.011Z,60.70
2023-02-27T04:17:43.739Z,60.70
2023-02-27T04:20:13.719Z,60.80
2023-02-27T04:22:44.724Z,60.80
2023-02-27T04:25:14.576Z,60.80
2023-02-27T04:27:51.900Z,60.80
2023-02-27T04:30:18.828Z,61.00
2023-02-27T04:32:51.827Z,61.10
2023-02-27T04:35:54.321Z,61.20
2023-02-27T04:38:42.009Z,61.30
2023-02-27T04:41:16.995Z,61.50
2023-02-27T04:43:44.481Z,61.40
2023-02-27T04:46:14.149Z,61.50
2023-02-27T04:48:44.833Z,61.40
2023-02-27T04:51:17.098Z,61.40
2023-02-27T04:53:50.282Z,61.50
2023-02-27T04:56:26.021Z,61.60
2023-02-27T04:58:55.087Z,61.60
2023-02-27T05:01:29.388Z,61.70
2023-02-27T05:04:00.090Z,61.70
2023-02-27T05:06:32.490Z,61.70
2023-02-27T05:09:03.421Z,61.70
2023-02-27T05:11:33.011Z,61.80
2023-02-27T05:14:04.746Z,61.90
2023-02-27T05:16:34.334Z,61.90
2023-02-27T05:19:02.152Z,61.80
2023-02-27T05:21:29.587Z,61.90
2023-02-27T05:24:30.416Z,61.90
2023-02-27T05:27:03.307Z,61.80
2023-02-27T05:29:30.184Z,61.90
2023-02-27T05:32:01.826Z,61.90
2023-02-27T05:34:33.248Z,61.70
2023-02-27T05:37:02.414Z,61.80
2023-02-27T05:39:30.638Z,61.80
2023-02-27T05:42:10.063Z,61.80
2023-02-27T05:44:40.270Z,61.70
2023-02-27T05:47:13.117Z,61.70
2023-02-27T05:49:40.091Z,61.50
2023-02-27T05:52:09.886Z,61.50
2023-02-27T05:54:44.980Z,61.40
2023-02-27T05:57:14.582Z,61.50
2023-02-27T05:59:50.478Z,61.40
2023-02-27T06:02:17.459Z,61.40
2023-02-27T06:04:44.422Z,61.20
2023-02-27T06:07:12.398Z,61.30
2023-02-27T06:09:39.363Z,61.10
2023-02-27T06:12:06.293Z,73.30
2023-02-27T06:14:33.173Z,68.30
2023-02-27T06:17:00.129Z,64.30
2023-02-27T06:19:27.124Z,62.60
2023-02-27T06:21:53.919Z,61.40
2023-02-27T06:24:22.132Z,61.00
2023-02-27T06:26:49.194Z,60.80
2023-02-27T06:29:16.072Z,60.60
2023-02-27T06:31:43.219Z,60.30
2023-02-27T06:34:10.504Z,60.00
2023-02-27T06:36:37.435Z,59.70
2023-02-27T06:39:05.245Z,59.70
2023-02-27T06:41:32.142Z,59.60
2023-02-27T06:43:58.984Z,59.40
2023-02-27T06:46:26.375Z,59.20
2023-02-27T06:48:53.671Z,58.40
2023-02-27T06:51:20.668Z,58.40
2023-02-27T06:53:47.747Z,58.30
2023-02-27T06:56:14.757Z,58.30
2023-02-27T06:58:41.939Z,58.10
2023-02-27T07:01:08.934Z,57.80
2023-02-27T07:03:35.878Z,57.70
2023-02-27T07:06:02.967Z,57.50
2023-02-27T07:08:29.848Z,57.10
2023-02-27T07:10:56.747Z,56.50
2023-02-27T07:13:23.836Z,56.60
2023-02-27T07:15:50.816Z,56.80
2023-02-27T07:18:17.893Z,56.80
2023-02-27T07:20:44.874Z,56.90
2023-02-27T07:23:11.876Z,56.70
2023-02-27T07:25:38.836Z,56.80
2023-02-27T07:28:05.764Z,56.60
2023-02-27T07:30:32.759Z,56.30
2023-02-27T07:32:59.737Z,55.80
2023-02-27T07:35:26.837Z,55.50
2023-02-27T07:37:53.899Z,56.10
2023-02-27T07:40:20.952Z,56.40
2023-02-27T07:42:48.921Z,56.40
2023-02-27T07:45:18.521Z,56.60
2023-02-27T07:47:45.827Z,56.40
2023-02-27T07:50:14.281Z,55.90
2023-02-27T07:52:41.738Z,56.10
2023-02-27T07:55:08.900Z,55.80
2023-02-27T07:57:35.757Z,55.50
2023-02-27T08:00:04.672Z,55.90
2023-02-27T08:02:31.593Z,56.10
2023-02-27T08:04:58.693Z,56.20
2023-02-27T08:07:26.999Z,55.90
2023-02-27T08:09:54.289Z,55.90
2023-02-27T08:12:21.291Z,56.10
2023-02-27T08:14:48.353Z,55.90
2023-02-27T08:17:15.241Z,55.90
2023-02-27T08:19:42.107Z,55.70
2023-02-27T08:22:08.991Z,55.60
2023-02-27T08:24:35.906Z,55.60
2023-02-27T08:27:02.837Z,55.70
2023-02-27T08:29:31.481Z,55.60
2023-02-27T08:31:58.756Z,55.80
2023-02-27T08:34:28.570Z,55.70
2023-02-27T08:36:55.569Z,55.50
2023-02-27T08:39:24.351Z,55.00
2023-02-27T08:41:52.832Z,54.90
2023-02-27T08:44:19.978Z,54.50
2023-02-27T08:46:46.915Z,54.60
2023-02-27T08:49:13.944Z,54.40
2023-02-27T08:51:40.984Z,53.90
2023-02-27T08:54:07.806Z,54.00
2023-02-27T08:56:35.132Z,54.30
2023-02-27T08:59:02.766Z,53.50
2023-02-27T09:01:34.810Z,53.30
2023-02-27T09:04:02.644Z,53.30
2023-02-27T09:06:30.165Z,53.20
2023-02-27T09:08:58.330Z,53.00
2023-02-27T09:11:25.986Z,53.00
2023-02-27T09:13:53.835Z,53.00
2023-02-27T09:16:21.916Z,52.90
2023-02-27T09:18:49.054Z,52.60
2023-02-27T09:21:16.575Z,52.60
2023-02-27T09:23:43.651Z,52.60
2023-02-27T09:26:11.092Z,52.60
2023-02-27T09:28:40.275Z,52.60
2023-02-27T09:31:08.221Z,52.40
2023-02-27T09:33:36.012Z,52.30
2023-02-27T09:36:03.324Z,52.30
2023-02-27T09:38:30.611Z,52.40
2023-02-27T09:40:59.580Z,52.40
2023-02-27T09:43:29.218Z,52.40
2023-02-27T09:45:56.393Z,52.40
2023-02-27T09:48:23.281Z,52.30
2023-02-27T09:50:52.729Z,52.30
2023-02-27T09:53:27.213Z,52.10
2023-02-27T09:55:59.421Z,52.20
2023-02-27T09:58:41.951Z,52.40
2023-02-27T10:01:08.794Z,52.30
2023-02-27T10:03:54.191Z,52.20
2023-02-27T10:06:27.121Z,52.20
2023-02-27T10:08:59.990Z,51.50
2023-02-27T10:11:37.004Z,51.30
2023-02-27T10:14:08.730Z,50.90
2023-02-27T10:16:36.105Z,50.80
2023-02-27T10:19:05.736Z,50.60
2023-02-27T10:21:41.237Z,50.30
2023-02-27T10:24:08.156Z,50.30
2023-02-27T10:26:40.078Z,50.30
2023-02-27T10:29:25.617Z,50.20
2023-02-27T10:31:55.480Z,50.10
2023-02-27T10:34:23.120Z,50.00
2023-02-27T10:36:50.104Z,49.70
2023-02-27T10:39:18.652Z,49.20
2023-02-27T10:41:46.471Z,48.50
2023-02-27T10:44:19.112Z,48.60
2023-02-27T10:46:46.522Z,48.50
2023-02-27T10:49:19.166Z,48.40
2023-02-27T10:51:47.632Z,48.60
2023-02-27T10:54:24.554Z,48.60
2023-02-27T10:56:53.876Z,48.60
2023-02-27T10:59:26.255Z,49.00
2023-02-27T11:01:57.354Z,49.30
2023-02-27T11:04:29.772Z,48.90
2023-02-27T11:06:57.135Z,49.50
2023-02-27T11:09:29.788Z,49.50
2023-02-27T11:12:09.659Z,49.10
2023-02-27T11:14:47.460Z,49.10
2023-02-27T11:17:21.772Z,49.00
2023-02-27T11:19:50.054Z,49.00
2023-02-27T11:22:18.874Z,48.60
2023-02-27T11:24:46.264Z,48.60
2023-02-27T11:27:21.196Z,48.50
2023-02-27T11:29:58.459Z,48.70
2023-02-27T11:32:27.060Z,48.40
2023-02-27T11:34:54.055Z,49.10
2023-02-27T11:37:24.045Z,49.10
2023-02-27T11:40:02.592Z,49.00
2023-02-27T11:42:32.464Z,49.50
2023-02-27T11:45:08.890Z,49.60
2023-02-27T11:47:37.366Z,49.30
2023-02-27T11:50:22.873Z,49.70
2023-02-27T11:53:22.000Z,49.10
2023-02-27T11:55:49.617Z,49.20
2023-02-27T11:58:25.724Z,49.40
2023-02-27T12:00:58.949Z,48.80
2023-02-27T12:03:34.041Z,47.90
2023-02-27T12:06:05.024Z,47.70
2023-02-27T12:08:32.069Z,47.30
2023-02-27T12:11:12.937Z,47.40
2023-02-27T12:13:43.228Z,47.80
2023-02-27T12:16:27.551Z,47.80
2023-02-27T12:19:18.607Z,48.00
2023-02-27T12:21:52.300Z,48.20
2023-02-27T12:24:41.040Z,48.60
2023-02-27T12:27:21.208Z,48.60
2023-02-27T12:29:50.965Z,47.80
2023-02-27T12:32:19.940Z,47.90
2023-02-27T12:34:46.979Z,47.90
2023-02-27T12:37:15.579Z,47.60
2023-02-27T12:39:44.069Z,47.40
2023-02-27T12:42:19.873Z,47.30
2023-02-27T12:45:03.670Z,47.20
2023-02-27T12:47:42.671Z,47.40
2023-02-27T12:50:16.017Z,47.60
2023-02-27T12:52:45.635Z,47.90
2023-02-27T12:55:15.465Z,48.00
2023-02-27T12:57:49.278Z,47.80
2023-02-27T13:00:18.518Z,47.30
2023-02-27T13:03:05.654Z,47.10
2023-02-27T13:05:37.408Z,46.20
2023-02-27T13:08:13.510Z,45.90
2023-02-27T13:10:49.582Z,46.10
2023-02-27T13:13:35.567Z,46.40
2023-02-27T13:16:06.033Z,46.80
2023-02-27T13:18:45.796Z,45.70
2023-02-27T13:21:15.369Z,45.70
2023-02-27T13:24:00.669Z,46.20
2023-02-27T13:26:38.891Z,46.60
2023-02-27T13:29:06.349Z,46.10
2023-02-27T13:31:52.074Z,45.40
2023-02-27T13:34:26.959Z,45.10
2023-02-27T13:36:59.172Z,45.70
2023-02-27T13:39:45.872Z,46.00
2023-02-27T13:42:28.090Z,46.10
2023-02-27T13:44:58.964Z,46.20
2023-02-27T13:48:01.353Z,46.10
2023-02-27T13:50:28.251Z,46.00
2023-02-27T13:52:55.230Z,46.00
2023-02-27T13:55:37.868Z,45.90
2023-02-27T13:58:05.827Z,45.90
2023-02-27T14:00:34.251Z,45.90
2023-02-27T14:03:21.888Z,45.60
2023-02-27T14:05:51.387Z,45.40
2023-02-27T14:08:28.396Z,45.70
2023-02-27T14:11:11.360Z,45.70
2023-02-27T14:13:50.082Z,45.80
2023-02-27T14:16:35.658Z,46.20
2023-02-27T14:19:02.736Z,46.10
2023-02-27T14:21:48.176Z,55.00
2023-02-27T14:24:15.666Z,59.20
2023-02-27T14:26:45.519Z,53.30
2023-02-27T14:29:20.603Z,50.80
2023-02-27T14:31:47.925Z,49.60
2023-02-27T14:34:16.054Z,49.00
2023-02-27T14:36:45.205Z,48.50
2023-02-27T14:39:23.535Z,47.90
2023-02-27T14:41:59.198Z,47.70
2023-02-27T14:44:28.083Z,47.30
2023-02-27T14:46:56.268Z,47.40
2023-02-27T14:49:28.547Z,47.10
2023-02-27T14:51:55.681Z,47.10
2023-02-27T14:54:27.119Z,46.50
2023-02-27T14:56:54.191Z,46.40
2023-02-27T14:59:21.006Z,46.40
2023-02-27T15:01:48.033Z,46.40
2023-02-27T15:04:16.632Z,46.60
2023-02-27T15:06:46.055Z,46.70
2023-02-27T15:09:20.868Z,46.50
2023-02-27T15:11:57.417Z,46.50
2023-02-27T15:14:31.371Z,46.50
2023-02-27T15:16:58.310Z,46.20
2023-02-27T15:19:26.844Z,46.50
2023-02-27T15:21:58.879Z,46.40
2023-02-27T15:24:33.117Z,46.40
2023-02-27T15:27:03.840Z,46.20
2023-02-27T15:29:33.834Z,46.30
2023-02-27T15:32:01.509Z,46.40
2023-02-27T15:34:30.021Z,46.60
2023-02-27T15:36:59.960Z,46.80
2023-02-27T15:39:29.111Z,47.00
2023-02-27T15:41:57.413Z,47.10
2023-02-27T15:44:26.593Z,46.90
2023-02-27T15:46:54.257Z,47.00
2023-02-27T15:49:23.661Z,47.20
2023-02-27T15:52:06.032Z,47.30
2023-02-27T15:54:34.122Z,47.00
2023-02-27T15:57:03.071Z,46.90
2023-02-27T15:59:32.845Z,47.00
2023-02-27T16:02:01.017Z,47.20
2023-02-27T16:04:27.966Z,47.20
2023-02-27T16:06:58.672Z,46.80
2023-02-27T16:09:28.850Z,47.20
2023-02-27T16:12:11.140Z,47.50
2023-02-27T16:14:43.116Z,47.80
2023-02-27T16:17:30.794Z,47.90
2023-02-27T16:20:01.268Z,48.00
2023-02-27T16:22:30.661Z,48.10
2023-02-27T16:25:07.945Z,48.10
2023-02-27T16:27:35.441Z,47.90
2023-02-27T16:30:09.220Z,47.70
2023-02-27T16:32:44.384Z,47.80
2023-02-27T16:35:18.726Z,47.80
2023-02-27T16:37:46.546Z,48.00
2023-02-27T16:40:18.975Z,48.20
2023-02-27T16:42:46.754Z,48.40
2023-02-27T16:45:24.263Z,48.20
2023-02-27T16:47:53.353Z,48.30
2023-02-27T16:50:22.142Z,48.10
2023-02-27T16:52:49.214Z,48.30
2023-02-27T16:55:16.220Z,48.40
2023-02-27T16:57:43.247Z,48.20
2023-02-27T17:00:13.997Z,48.30
2023-02-27T17:02:40.917Z,48.30
2023-02-27T17:05:08.558Z,48.50
2023-02-27T17:07:35.626Z,48.30
2023-02-27T17:10:03.016Z,48.50
2023-02-27T17:12:29.869Z,48.30
2023-02-27T17:14:57.025Z,48.60
2023-02-27T17:17:23.841Z,48.70
2023-02-27T17:19:50.714Z,48.70
2023-02-27T17:22:17.667Z,48.90
2023-02-27T17:24:44.552Z,49.30
2023-02-27T17:27:11.440Z,49.50
2023-02-27T17:29:38.645Z,49.50
2023-02-27T17:32:05.917Z,49.70
2023-02-27T17:34:32.842Z,49.90
2023-02-27T17:36:59.673Z,50.20
2023-02-27T17:39:26.616Z,50.30
2023-02-27T17:41:54.790Z,50.50
2023-02-27T17:44:21.740Z,50.70
2023-02-27T17:46:48.605Z,50.80
2023-02-27T17:49:15.621Z,50.90
2023-02-27T17:51:42.570Z,50.90
2023-02-27T17:54:09.765Z,51.00
2023-02-27T17:56:37.595Z,51.20
2023-02-27T17:59:05.005Z,51.30
2023-02-27T18:01:32.023Z,51.50
2023-02-27T18:03:58.928Z,51.40
2023-02-27T18:06:25.964Z,51.50
2023-02-27T18:08:53.065Z,51.60
2023-02-27T18:11:21.586Z,51.60
2023-02-27T18:13:48.521Z,51.50
2023-02-27T18:16:15.492Z,51.50
2023-02-27T18:18:42.966Z,51.60
2023-02-27T18:21:11.629Z,51.60
2023-02-27T18:23:39.072Z,51.50
2023-02-27T18:26:06.024Z,51.40
2023-02-27T18:28:32.954Z,51.50
2023-02-27T18:31:00.055Z,51.50
2023-02-27T18:33:27.634Z,51.50
2023-02-27T18:35:56.564Z,51.60
2023-02-27T18:38:23.794Z,51.40
2023-02-27T18:40:50.725Z,51.30
2023-02-27T18:43:17.669Z,51.40
2023-02-27T18:45:45.536Z,51.40
2023-02-27T18:48:12.384Z,51.60
2023-02-27T18:50:39.231Z,51.60
2023-02-27T18:53:06.172Z,51.70
2023-02-27T18:55:34.039Z,51.70
2023-02-27T18:58:00.940Z,51.70
2023-02-27T19:00:27.830Z,51.70
2023-02-27T19:02:54.716Z,51.60
2023-02-27T19:05:21.629Z,51.70
2023-02-27T19:07:48.505Z,51.70
2023-02-27T19:10:15.462Z,51.80
2023-02-27T19:12:42.446Z,51.90
2023-02-27T19:15:10.804Z,52.00
2023-02-27T19:17:37.870Z,52.10
2023-02-27T19:20:07.063Z,52.10
2023-02-27T19:22:34.230Z,52.10
2023-02-27T19:25:01.292Z,52.20
2023-02-27T19:27:28.211Z,52.20
2023-02-27T19:29:55.156Z,52.30
2023-02-27T19:32:22.664Z,52.40
2023-02-27T19:34:49.676Z,52.30
2023-02-27T19:37:16.983Z,52.20
2023-02-27T19:39:44.114Z,52.00
2023-02-27T19:42:11.421Z,52.20
2023-02-27T19:44:39.938Z,52.20
2023-02-27T19:47:07.070Z,52.20
2023-02-27T19:49:34.092Z,52.40
2023-02-27T19:52:01.014Z,52.50
2023-02-27T19:54:28.222Z,52.50
2023-02-27T19:56:55.495Z,52.50
2023-02-27T19:59:24.773Z,52.50
2023-02-27T20:01:52.007Z,52.60
2023-02-27T20:04:19.159Z,52.80
2023-02-27T20:06:46.769Z,52.80
2023-02-27T20:09:15.131Z,53.00
2023-02-27T20:11:43.603Z,53.20
2023-02-27T20:14:11.003Z,53.20
2023-02-27T20:16:38.110Z,53.20
2023-02-27T20:19:05.567Z,53.20
2023-02-27T20:21:33.889Z,53.30
2023-02-27T20:24:01.169Z,53.30
2023-02-27T20:26:36.356Z,53.50
2023-02-27T20:29:07.898Z,53.70
2023-02-27T20:31:35.522Z,53.90
2023-02-27T20:34:06.139Z,54.00
2023-02-27T20:36:34.765Z,54.10
2023-02-27T20:39:02.567Z,54.20
2023-02-27T20:41:30.064Z,54.30
2023-02-27T20:43:57.215Z,54.50
2023-02-27T20:46:26.744Z,54.50
2023-02-27T20:48:55.409Z,54.60
2023-02-27T20:51:23.368Z,54.60
2023-02-27T20:53:51.772Z,54.70
2023-02-27T20:56:22.745Z,54.70
2023-02-27T20:58:50.040Z,54.80
2023-02-27T21:01:17.572Z,54.90
2023-02-27T21:03:45.161Z,55.00
2023-02-27T21:06:14.265Z,54.90
2023-02-27T21:08:42.562Z,54.90
2023-02-27T21:11:10.431Z,54.90
2023-02-27T21:13:37.691Z,55.00
2023-02-27T21:16:05.134Z,55.00
2023-02-27T21:18:32.513Z,55.00
2023-02-27T21:21:06.585Z,55.10
2023-02-27T21:23:34.573Z,55.00
2023-02-27T21:26:04.474Z,55.10
2023-02-27T21:28:31.484Z,55.00
2023-02-27T21:30:58.310Z,55.20
2023-02-27T21:33:25.164Z,55.30
2023-02-27T21:35:52.182Z,55.40
2023-02-27T21:38:19.205Z,55.40
2023-02-27T21:40:46.070Z,55.50
2023-02-27T21:43:12.954Z,55.50
2023-02-27T21:45:44.319Z,55.40
2023-02-27T21:48:11.949Z,55.40
2023-02-27T21:50:39.033Z,55.50
2023-02-27T21:53:05.936Z,55.50
2023-02-27T21:55:34.152Z,55.30
2023-02-27T21:58:04.055Z,55.40
2023-02-27T22:00:31.439Z,55.40
2023-02-27T22:02:58.364Z,55.50
2023-02-27T22:05:25.270Z,55.70
2023-02-27T22:07:52.155Z,55.70
2023-02-27T22:10:19.078Z,55.80
2023-02-27T22:12:45.997Z,55.90
2023-02-27T22:15:13.078Z,56.00
2023-02-27T22:17:39.910Z,56.10
2023-02-27T22:20:07.646Z,56.10
2023-02-27T22:22:34.482Z,56.10
2023-02-27T22:25:01.338Z,56.10
2023-02-27T22:27:28.269Z,56.00
2023-02-27T22:29:55.237Z,56.10
2023-02-27T22:32:22.138Z,56.10
2023-02-27T22:34:49.948Z,56.30
2023-02-27T22:37:19.427Z,56.30
2023-02-27T22:39:46.316Z,56.20
2023-02-27T22:42:14.455Z,56.40
2023-02-27T22:44:41.578Z,56.40
2023-02-27T22:47:08.467Z,56.40
2023-02-27T22:49:37.215Z,56.60
2023-02-27T22:52:04.291Z,56.50
2023-02-27T22:54:31.225Z,56.50
2023-02-27T22:56:58.359Z,56.30
2023-02-27T22:59:25.269Z,56.50
2023-02-27T23:01:52.168Z,56.50
2023-02-27T23:04:19.167Z,56.20
2023-02-27T23:06:46.036Z,56.20
2023-02-27T23:09:14.534Z,56.20
2023-02-27T23:11:42.171Z,56.20
2023-02-27T23:14:09.339Z,56.30
2023-02-27T23:16:36.621Z,56.40
2023-02-27T23:19:04.459Z,56.30
2023-02-27T23:21:34.802Z,56.10
2023-02-27T23:24:06.021Z,56.20
2023-02-27T23:26:35.269Z,56.20
2023-02-27T23:29:02.320Z,56.30
2023-02-27T23:31:29.886Z,55.80
2023-02-27T23:33:57.523Z,55.80
2023-02-27T23:36:24.479Z,56.00
2023-02-27T23:38:51.467Z,55.70
2023-02-27T23:41:20.828Z,55.80
2023-02-27T23:43:51.704Z,56.10
2023-02-27T23:46:19.310Z,56.20
2023-02-27T23:48:48.011Z,56.40
2023-02-27T23:51:15.251Z,56.40
2023-02-27T23:53:42.372Z,56.50
2023-02-27T23:56:28.019Z,56.70
2023-02-27T23:58:56.129Z,56.80
